Aeroporto :
LOGIN :

Iscrizione | Disclaimer

   EN    FR    IT 

 










Sommario :    VFR   VFR Marginale   IFR   IFR Intensivo   IFR Molto Intensivo
Visibilità : 
Base nubi : 
>= 8 km
>= 3000ft
5 / 8 km
1000 / 3000 ft
1500m / 5 km
500 / 1000 ft
800 / 1500m
200 / 500 ft
< 800m
< 200 ft
Simboli :   Temporali  Nebbia  Neve Forte  Precipitazioni Forti  Vento > 20 kt
SIGMETs :   Varie  Temporali  Ghiacco  Turbolenza  Onda orograficha  Ceneri Vulcaniche






- Altitudine del aeroporto : 741 ft
- Codice IATA : JKG


ESGJ - Jönköping

ULTIMO METAR :
  • 200620Z 24010KT 9999 BKN005 02/01 Q1033

METARs OBSOLETI :
  • 200550Z 23008KT 9999 BKN004 01/01 Q1033
  • 200520Z 23009KT 9999 BKN005 01/00 Q1033
  • 200450Z 22007KT 9999 SCT006 01/00 Q1034
  • 200420Z AUTO 21007KT 9999 SCT170/// 00/M00 Q1033
  • 200350Z AUTO 21006KT 9999 FEW170/// 00/M01 Q1034

TAF TAF ESGJ
Valido dal 20 a 06 ore il 20 a 15 ore UTC


200530Z 2006/2015 22009KT 9999 BKN005
PROB40 2006/2010 SCT005 BKN015
BECMG 2010/2012 26015G25KT BKN010



MetMap, La meteo Aeronautica in un colpo d'occhio ! - Copyright ORBIFLY Dicembre 2007 - Disclaimer

ORBIFLY MET'MAP TEAM :

Programmazione e sviluppo : Alexandra Zaïnal
Concezione : Baudouin d'Aumeries
Aiuto per la programmazione : Marc-Olivier Méhu
Supporto tecnico e logistico : Manuel Goepfert
Aiuto per la traduzione : Arnaldo La Scala

Contatto : metmap@orbifly.com




FONTI E CREDITI :

   NOAA